createdAt,value
2022-12-20T00:01:17.828Z,19.55
2022-12-20T00:03:45.331Z,20.15
2022-12-20T00:06:13.208Z,19.40
2022-12-20T00:08:40.456Z,16.02
2022-12-20T00:11:08.471Z,16.52
2022-12-20T00:13:36.166Z,14.90
2022-12-20T00:16:06.293Z,16.45
2022-12-20T00:21:01.675Z,15.25
2022-12-20T00:23:29.904Z,16.38
2022-12-20T00:26:05.675Z,15.93
2022-12-20T00:28:33.577Z,15.93
2022-12-20T00:31:01.303Z,14.93
2022-12-20T00:33:28.174Z,13.98
2022-12-20T00:35:56.625Z,16.95
2022-12-20T00:38:25.031Z,15.63
2022-12-20T00:41:01.054Z,14.68
2022-12-20T00:43:28.600Z,15.60
2022-12-20T00:45:55.442Z,13.10
2022-12-20T00:48:23.404Z,17.58
2022-12-20T00:50:50.538Z,14.68
2022-12-20T00:53:22.692Z,15.05
2022-12-20T00:55:52.920Z,16.45
2022-12-20T00:58:19.740Z,13.55
2022-12-20T01:00:52.214Z,16.88
2022-12-20T01:03:23.026Z,17.27
2022-12-20T01:05:53.053Z,15.80
2022-12-20T01:08:21.233Z,13.50
2022-12-20T01:11:08.203Z,13.55
2022-12-20T01:13:36.729Z,12.75
2022-12-20T01:16:25.015Z,13.13
2022-12-20T01:18:52.673Z,12.73
2022-12-20T01:21:21.290Z,12.40
2022-12-20T01:23:48.539Z,11.55
2022-12-20T01:26:18.136Z,12.18
2022-12-20T01:28:46.842Z,13.63
2022-12-20T01:31:17.968Z,12.63
2022-12-20T01:33:46.818Z,12.77
2022-12-20T01:36:25.158Z,12.77
2022-12-20T01:39:00.316Z,13.63
2022-12-20T01:41:28.665Z,14.25
2022-12-20T01:43:56.975Z,12.77
2022-12-20T01:46:29.902Z,11.45
2022-12-20T01:49:00.410Z,10.75
2022-12-20T01:51:29.958Z,11.05
2022-12-20T01:54:02.356Z,12.07
2022-12-20T01:56:29.196Z,13.57
2022-12-20T01:58:57.347Z,12.23
2022-12-20T02:01:25.354Z,8.65
2022-12-20T02:03:54.176Z,10.82
2022-12-20T02:06:23.643Z,11.60
2022-12-20T02:08:52.704Z,11.32
2022-12-20T02:11:40.207Z,8.48
2022-12-20T02:14:25.718Z,10.05
2022-12-20T02:17:09.972Z,11.07
2022-12-20T02:19:51.842Z,11.38
2022-12-20T02:22:27.535Z,11.02
2022-12-20T02:25:32.704Z,10.30
2022-12-20T02:28:27.443Z,8.82
2022-12-20T02:30:56.600Z,9.02
2022-12-20T02:33:26.829Z,9.98
2022-12-20T02:38:31.717Z,8.75
2022-12-20T02:41:22.449Z,9.65
2022-12-20T02:44:14.245Z,9.95
2022-12-20T02:46:42.111Z,8.45
2022-12-20T02:49:14.522Z,8.68
2022-12-20T02:51:44.700Z,9.23
2022-12-20T02:56:48.345Z,8.30
2022-12-20T02:59:25.852Z,8.63
2022-12-20T03:01:55.047Z,10.32
2022-12-20T03:04:26.421Z,8.90
2022-12-20T03:07:00.126Z,6.60
2022-12-20T03:09:27.423Z,7.15
2022-12-20T03:11:54.581Z,6.45
2022-12-20T03:14:21.804Z,7.50
2022-12-20T03:16:48.936Z,5.80
2022-12-20T03:19:15.865Z,6.05
2022-12-20T03:21:43.051Z,5.25
2022-12-20T03:24:11.226Z,6.10
2022-12-20T03:26:38.152Z,5.95
2022-12-20T03:29:04.889Z,5.50
2022-12-20T03:31:31.773Z,5.82
2022-12-20T03:33:58.692Z,4.50
2022-12-20T03:36:25.701Z,5.78
2022-12-20T03:38:53.516Z,7.43
2022-12-20T03:41:22.572Z,5.22
2022-12-20T03:43:49.839Z,7.60
2022-12-20T03:46:17.114Z,6.28
2022-12-20T03:48:44.324Z,7.05
2022-12-20T03:51:11.380Z,5.47
2022-12-20T03:53:38.084Z,5.70
2022-12-20T03:56:05.101Z,5.38
2022-12-20T03:58:31.786Z,5.57
2022-12-20T04:00:59.081Z,5.47
2022-12-20T04:03:25.936Z,5.68
2022-12-20T04:05:52.881Z,5.63
2022-12-20T04:08:19.593Z,5.22
2022-12-20T04:11:04.817Z,5.55
2022-12-20T04:13:31.505Z,5.88
2022-12-20T04:16:00.632Z,5.65
2022-12-20T04:18:28.072Z,5.65
2022-12-20T04:20:54.951Z,4.68
2022-12-20T04:23:21.844Z,6.07
2022-12-20T04:25:48.529Z,4.97
2022-12-20T04:28:15.280Z,5.90
2022-12-20T04:30:42.004Z,4.55
2022-12-20T04:33:08.700Z,5.65
2022-12-20T04:35:36.422Z,5.32
2022-12-20T04:38:03.601Z,5.93
2022-12-20T04:40:30.309Z,4.63
2022-12-20T04:42:57.036Z,6.57
2022-12-20T04:45:23.709Z,6.20
2022-12-20T04:47:50.414Z,5.47
2022-12-20T04:50:18.505Z,5.80
2022-12-20T04:53:04.089Z,4.82
2022-12-20T04:55:30.916Z,5.28
2022-12-20T04:58:00.739Z,6.30
2022-12-20T05:00:32.651Z,5.70
2022-12-20T05:03:00.080Z,5.00
2022-12-20T05:05:27.336Z,5.38
2022-12-20T05:07:54.598Z,5.25
2022-12-20T05:10:21.320Z,5.30
2022-12-20T05:12:48.323Z,4.65
2022-12-20T05:15:15.159Z,5.45
2022-12-20T05:17:41.847Z,5.10
2022-12-20T05:20:09.036Z,5.75
2022-12-20T05:22:54.241Z,5.93
2022-12-20T05:25:39.716Z,4.78
2022-12-20T05:28:07.856Z,5.97
2022-12-20T05:30:34.700Z,4.68
2022-12-20T05:33:01.703Z,5.90
2022-12-20T05:35:28.425Z,5.85
2022-12-20T05:37:55.344Z,4.80
2022-12-20T05:40:22.409Z,4.72
2022-12-20T05:42:49.201Z,5.60
2022-12-20T05:45:16.020Z,3.85
2022-12-20T05:47:42.707Z,5.30
2022-12-20T05:50:16.648Z,5.00
2022-12-20T05:52:45.611Z,6.03
2022-12-20T05:55:12.401Z,5.72
2022-12-20T05:57:39.091Z,5.75
2022-12-20T06:00:07.159Z,4.60
2022-12-20T06:02:34.112Z,4.60
2022-12-20T06:05:01.104Z,4.75
2022-12-20T06:07:31.739Z,6.40
2022-12-20T06:09:59.041Z,5.93
2022-12-20T06:12:25.814Z,4.15
2022-12-20T06:14:52.578Z,4.65
2022-12-20T06:17:20.114Z,5.80
2022-12-20T06:19:46.941Z,4.90
2022-12-20T06:22:13.842Z,4.90
2022-12-20T06:24:47.731Z,5.00
2022-12-20T06:27:15.148Z,6.25
2022-12-20T06:29:41.899Z,5.38
2022-12-20T06:32:08.635Z,5.22
2022-12-20T06:34:35.437Z,5.93
2022-12-20T06:37:02.142Z,5.75
2022-12-20T06:39:29.017Z,6.55
2022-12-20T06:41:55.747Z,5.70
2022-12-20T06:44:22.448Z,7.97
2022-12-20T06:46:49.189Z,6.47
2022-12-20T06:49:15.897Z,6.28
2022-12-20T06:51:42.705Z,5.38
2022-12-20T06:54:09.462Z,7.35
2022-12-20T06:56:41.065Z,5.25
2022-12-20T06:59:08.420Z,5.72
2022-12-20T07:01:35.261Z,5.15
2022-12-20T07:04:02.252Z,5.95
2022-12-20T07:06:29.417Z,6.38
2022-12-20T07:08:56.458Z,5.10
2022-12-20T07:11:23.244Z,5.03
2022-12-20T07:13:50.391Z,5.43
2022-12-20T07:16:17.166Z,4.97
2022-12-20T07:18:43.955Z,5.07
2022-12-20T07:21:10.705Z,5.22
2022-12-20T07:23:37.432Z,5.28
2022-12-20T07:26:04.326Z,6.07
2022-12-20T07:28:31.131Z,5.50
2022-12-20T07:31:01.657Z,8.40
2022-12-20T07:33:28.808Z,7.13
2022-12-20T07:36:10.840Z,6.60
2022-12-20T07:38:37.619Z,6.40
2022-12-20T07:41:13.920Z,8.10
2022-12-20T07:43:40.921Z,4.95
2022-12-20T07:46:08.753Z,6.05
2022-12-20T07:48:36.187Z,6.03
2022-12-20T07:51:26.670Z,5.82
2022-12-20T07:54:00.149Z,6.97
2022-12-20T07:56:27.694Z,4.47
2022-12-20T07:58:58.898Z,5.60
2022-12-20T08:01:27.806Z,6.97
2022-12-20T08:04:05.581Z,6.00
2022-12-20T08:06:34.389Z,5.22
2022-12-20T08:09:04.289Z,6.22
2022-12-20T08:11:34.467Z,6.30
2022-12-20T08:16:28.287Z,5.05
2022-12-20T08:18:55.038Z,6.88
2022-12-20T08:21:21.745Z,4.82
2022-12-20T08:23:48.630Z,4.45
2022-12-20T08:26:15.347Z,5.20
2022-12-20T08:28:42.127Z,7.13
2022-12-20T08:31:10.119Z,6.82
2022-12-20T08:33:38.244Z,5.03
2022-12-20T08:36:10.718Z,5.07
2022-12-20T08:38:37.944Z,4.55
2022-12-20T08:41:10.907Z,5.72
2022-12-20T08:43:38.293Z,7.15
2022-12-20T08:46:06.962Z,5.07
2022-12-20T08:48:33.813Z,5.10
2022-12-20T08:51:04.924Z,5.18
2022-12-20T08:53:32.395Z,5.88
2022-12-20T08:56:09.379Z,7.00
2022-12-20T08:58:36.876Z,6.95
2022-12-20T09:01:07.203Z,4.22
2022-12-20T09:03:35.603Z,6.85
2022-12-20T09:06:06.846Z,6.03
2022-12-20T09:08:37.843Z,5.28
2022-12-20T09:11:09.162Z,10.02
2022-12-20T09:13:43.140Z,7.90
2022-12-20T09:16:12.144Z,5.53
2022-12-20T09:18:38.997Z,5.95
2022-12-20T09:21:07.483Z,4.15
2022-12-20T09:23:35.638Z,4.15
2022-12-20T09:26:04.167Z,5.43
2022-12-20T09:28:31.696Z,4.32
2022-12-20T09:31:00.272Z,5.07
2022-12-20T09:33:28.676Z,4.97
2022-12-20T09:35:55.700Z,5.55
2022-12-20T09:38:22.768Z,5.63
2022-12-20T09:40:55.516Z,4.45
2022-12-20T09:43:23.269Z,4.30
2022-12-20T09:45:53.934Z,5.75
2022-12-20T09:48:30.453Z,5.97
2022-12-20T09:51:32.067Z,3.67
2022-12-20T09:54:22.785Z,5.00
2022-12-20T09:56:58.414Z,9.13
2022-12-20T09:59:25.113Z,6.57
2022-12-20T10:01:52.930Z,8.25
2022-12-20T10:04:19.795Z,4.22
2022-12-20T10:06:55.618Z,4.20
2022-12-20T10:10:01.493Z,4.55
2022-12-20T10:12:30.968Z,6.70
2022-12-20T10:15:16.466Z,6.07
2022-12-20T10:18:00.823Z,5.72
2022-12-20T10:20:45.677Z,5.05
2022-12-20T10:23:30.938Z,6.38
2022-12-20T10:25:59.726Z,5.57
2022-12-20T10:28:30.275Z,3.90
2022-12-20T10:31:06.646Z,4.97
2022-12-20T10:33:34.195Z,5.63
2022-12-20T10:36:28.069Z,4.72
2022-12-20T10:38:57.029Z,4.43
2022-12-20T10:41:33.678Z,4.97
2022-12-20T10:44:25.653Z,5.53
2022-12-20T10:46:57.783Z,5.07
2022-12-20T10:49:28.314Z,4.35
2022-12-20T10:51:57.647Z,6.32
2022-12-20T10:54:52.034Z,4.35
2022-12-20T10:57:25.490Z,4.32
2022-12-20T10:59:54.098Z,4.63
2022-12-20T11:02:40.806Z,4.20
2022-12-20T11:05:11.531Z,5.10
2022-12-20T11:08:33.613Z,4.53
2022-12-20T11:10:39.811Z,4.60
2022-12-20T11:13:06.890Z,5.50
2022-12-20T11:15:36.206Z,3.53
2022-12-20T11:18:07.113Z,5.28
2022-12-20T11:21:18.489Z,5.68
2022-12-20T11:24:26.552Z,3.70
2022-12-20T11:26:58.829Z,4.97
2022-12-20T11:30:02.336Z,4.38
2022-12-20T11:32:57.005Z,5.22
2022-12-20T11:35:50.444Z,6.05
2022-12-20T11:38:44.344Z,5.75
2022-12-20T11:41:18.085Z,3.60
2022-12-20T11:44:25.390Z,4.18
2022-12-20T11:47:08.591Z,4.45
2022-12-20T11:49:58.221Z,4.00
2022-12-20T11:52:35.607Z,3.93
2022-12-20T11:55:21.716Z,4.15
2022-12-20T12:01:05.985Z,3.15
2022-12-20T12:03:38.493Z,3.85
2022-12-20T12:06:45.950Z,4.57
2022-12-20T12:09:27.830Z,5.10
2022-12-20T12:12:07.699Z,4.90
2022-12-20T12:14:59.681Z,4.80
2022-12-20T12:17:44.485Z,4.82
2022-12-20T12:20:53.055Z,6.63
2022-12-20T12:23:47.051Z,5.55
2022-12-20T12:26:24.246Z,7.10
2022-12-20T12:28:59.371Z,7.50
2022-12-20T12:31:36.360Z,6.15
2022-12-20T12:34:07.434Z,7.07
2022-12-20T12:37:01.963Z,10.63
2022-12-20T12:39:44.224Z,7.68
2022-12-20T12:42:32.658Z,7.70
2022-12-20T12:45:14.492Z,8.45
2022-12-20T12:47:49.862Z,11.32
2022-12-20T12:50:27.166Z,8.25
2022-12-20T12:52:57.325Z,10.60
2022-12-20T12:55:48.877Z,8.35
2022-12-20T12:58:24.702Z,8.00
2022-12-20T13:00:54.480Z,10.32
2022-12-20T13:03:54.026Z,8.93
2022-12-20T13:06:23.821Z,6.60
2022-12-20T13:09:25.258Z,8.77
2022-12-20T13:12:00.378Z,8.43
2022-12-20T13:14:30.076Z,6.82
2022-12-20T13:17:24.121Z,9.68
2022-12-20T13:19:52.157Z,6.90
2022-12-20T13:22:24.718Z,8.63
2022-12-20T13:25:03.922Z,7.65
2022-12-20T13:27:34.931Z,6.65
2022-12-20T13:30:04.858Z,8.82
2022-12-20T13:32:59.762Z,8.93
2022-12-20T13:35:27.001Z,8.02
2022-12-20T13:37:55.125Z,9.57
2022-12-20T13:40:47.124Z,8.75
2022-12-20T13:43:20.204Z,9.55
2022-12-20T13:45:54.887Z,12.07
2022-12-20T13:48:48.601Z,8.07
2022-12-20T13:51:21.144Z,8.23
2022-12-20T13:54:00.372Z,10.90
2022-12-20T13:56:27.056Z,8.18
2022-12-20T13:58:55.464Z,9.57
2022-12-20T14:01:24.482Z,9.50
2022-12-20T14:03:53.270Z,12.18
2022-12-20T14:06:26.798Z,8.77
2022-12-20T14:08:54.011Z,10.05
2022-12-20T14:11:30.172Z,15.52
2022-12-20T14:13:58.294Z,10.50
2022-12-20T14:16:27.524Z,14.27
2022-12-20T14:19:00.123Z,9.57
2022-12-20T14:21:27.882Z,13.88
2022-12-20T14:23:56.853Z,13.45
2022-12-20T14:26:26.461Z,9.95
2022-12-20T14:28:58.789Z,9.80
2022-12-20T14:31:40.054Z,9.60
2022-12-20T14:34:15.269Z,11.57
2022-12-20T14:36:45.053Z,12.45
2022-12-20T14:39:29.869Z,11.57
2022-12-20T14:42:13.687Z,9.05
2022-12-20T14:44:40.796Z,13.02
2022-12-20T14:47:23.081Z,10.25
2022-12-20T14:49:55.827Z,8.55
2022-12-20T14:52:33.377Z,16.83
2022-12-20T14:55:08.493Z,13.30
2022-12-20T14:57:36.499Z,12.57
2022-12-20T15:00:17.655Z,9.30
2022-12-20T15:02:52.241Z,13.75
2022-12-20T15:05:34.859Z,11.32
2022-12-20T15:08:20.018Z,12.93
2022-12-20T15:11:10.272Z,11.35
2022-12-20T15:13:36.938Z,11.90
2022-12-20T15:16:06.814Z,12.80
2022-12-20T15:18:33.666Z,12.07
2022-12-20T15:21:10.364Z,8.50
2022-12-20T15:23:39.923Z,10.85
2022-12-20T15:26:06.743Z,15.50
2022-12-20T15:28:33.487Z,11.05
2022-12-20T15:31:00.294Z,10.20
2022-12-20T15:33:30.739Z,11.68
2022-12-20T15:38:47.632Z,11.38
2022-12-20T15:41:28.578Z,13.85
2022-12-20T15:44:10.244Z,13.88
2022-12-20T15:46:37.020Z,14.93
2022-12-20T15:49:03.848Z,15.52
2022-12-20T15:51:35.653Z,14.60
2022-12-20T15:54:13.999Z,12.75
2022-12-20T15:56:40.708Z,12.80
2022-12-20T15:59:32.327Z,13.35
2022-12-20T16:01:54.785Z,16.85
2022-12-20T16:04:22.299Z,21.25
2022-12-20T16:06:50.979Z,21.50
2022-12-20T16:09:18.032Z,20.33
2022-12-20T16:11:44.764Z,18.25
2022-12-20T16:14:17.386Z,18.38
2022-12-20T16:16:45.479Z,20.42
2022-12-20T16:19:12.306Z,17.55
2022-12-20T16:21:45.972Z,16.23
2022-12-20T16:24:14.752Z,20.27
2022-12-20T16:26:42.173Z,15.75
2022-12-20T16:29:08.933Z,14.45
2022-12-20T16:31:42.281Z,15.85
2022-12-20T16:34:16.939Z,12.57
2022-12-20T16:36:44.392Z,9.23
2022-12-20T16:39:11.581Z,11.02
2022-12-20T16:41:41.141Z,9.82
2022-12-20T16:44:16.350Z,13.02
2022-12-20T16:46:43.237Z,15.00
2022-12-20T16:49:19.551Z,16.77
2022-12-20T16:51:48.241Z,16.05
2022-12-20T16:54:20.768Z,17.83
2022-12-20T16:56:51.911Z,19.60
2022-12-20T16:59:21.159Z,21.15
2022-12-20T17:01:51.675Z,18.10
2022-12-20T17:04:19.188Z,17.73
2022-12-20T17:06:46.789Z,16.73
2022-12-20T17:09:13.808Z,22.67
2022-12-20T17:11:40.512Z,29.52
2022-12-20T17:14:12.343Z,32.50
2022-12-20T17:16:40.251Z,27.95
2022-12-20T17:19:07.135Z,24.80
2022-12-20T17:24:29.803Z,21.80
2022-12-20T17:26:56.498Z,21.17
2022-12-20T17:29:23.268Z,21.85
2022-12-20T17:31:50.063Z,19.70
2022-12-20T17:34:24.184Z,18.02
2022-12-20T17:36:54.184Z,18.85
2022-12-20T17:39:21.579Z,20.80
2022-12-20T17:41:52.014Z,22.08
2022-12-20T17:44:27.466Z,20.23
2022-12-20T17:46:56.160Z,18.98
2022-12-20T17:49:24.026Z,22.23
2022-12-20T17:51:51.618Z,15.80
2022-12-20T17:54:24.671Z,15.27
2022-12-20T17:56:52.110Z,23.55
2022-12-20T17:59:19.196Z,16.50
2022-12-20T18:01:47.376Z,15.20
2022-12-20T18:04:16.416Z,13.48
2022-12-20T18:06:45.271Z,15.85
2022-12-20T18:09:20.054Z,15.02
2022-12-20T18:11:47.317Z,14.75
2022-12-20T18:14:15.054Z,14.52
2022-12-20T18:16:42.084Z,13.25
2022-12-20T18:19:15.685Z,12.13
2022-12-20T18:21:42.370Z,14.13
2022-12-20T18:24:14.612Z,15.15
2022-12-20T18:26:42.073Z,15.68
2022-12-20T18:29:10.203Z,11.55
2022-12-20T18:31:37.014Z,14.57
2022-12-20T18:34:04.352Z,12.75
2022-12-20T18:36:34.643Z,14.93
2022-12-20T18:39:04.378Z,13.82
2022-12-20T18:41:31.935Z,12.02
2022-12-20T18:44:01.222Z,11.32
2022-12-20T18:46:28.786Z,12.57
2022-12-20T18:48:58.131Z,14.68
2022-12-20T18:51:30.454Z,12.88
2022-12-20T18:53:58.391Z,9.85
2022-12-20T18:56:30.861Z,9.18
2022-12-20T18:59:04.553Z,10.13
2022-12-20T19:01:37.840Z,10.80
2022-12-20T19:04:07.193Z,12.25
2022-12-20T19:06:34.411Z,11.13
2022-12-20T19:09:08.167Z,9.98
2022-12-20T19:11:35.385Z,13.95
2022-12-20T19:14:02.158Z,11.35
2022-12-20T19:16:32.186Z,11.68
2022-12-20T19:21:31.883Z,7.80
2022-12-20T19:24:01.348Z,10.00
2022-12-20T19:26:29.769Z,10.93
2022-12-20T19:28:57.290Z,12.23
2022-12-20T19:31:26.199Z,11.65
2022-12-20T19:33:55.975Z,12.90
2022-12-20T19:36:41.615Z,11.95
2022-12-20T19:39:14.590Z,10.50
2022-12-20T19:41:41.329Z,10.98
2022-12-20T19:44:09.375Z,14.38
2022-12-20T19:46:36.489Z,11.13
2022-12-20T19:49:03.474Z,10.15
2022-12-20T19:51:30.535Z,9.15
2022-12-20T19:53:58.372Z,9.30
2022-12-20T19:56:31.455Z,9.68
2022-12-20T19:58:58.196Z,10.77
2022-12-20T20:01:27.397Z,8.70
2022-12-20T20:03:55.931Z,11.70
2022-12-20T20:06:23.663Z,11.15
2022-12-20T20:08:50.816Z,10.77
2022-12-20T20:11:18.945Z,8.35
2022-12-20T20:13:46.130Z,8.65
2022-12-20T20:16:19.960Z,8.95
2022-12-20T20:18:49.143Z,10.85
2022-12-20T20:21:21.833Z,11.00
2022-12-20T20:23:53.030Z,10.35
2022-12-20T20:26:25.906Z,12.48
2022-12-20T20:28:53.085Z,16.05
2022-12-20T20:31:20.919Z,11.88
2022-12-20T20:33:48.143Z,11.30
2022-12-20T20:36:17.538Z,10.18
2022-12-20T20:38:44.621Z,11.07
2022-12-20T20:41:11.810Z,11.93
2022-12-20T20:43:38.562Z,10.00
2022-12-20T20:46:08.523Z,10.30
2022-12-20T20:48:35.887Z,10.73
2022-12-20T20:51:02.739Z,12.25
2022-12-20T20:53:33.418Z,10.68
2022-12-20T20:56:02.296Z,9.98
2022-12-20T20:58:29.444Z,10.27
2022-12-20T21:01:01.529Z,9.35
2022-12-20T21:03:30.470Z,8.68
2022-12-20T21:06:34.859Z,10.57
2022-12-20T21:08:44.805Z,8.18
2022-12-20T21:11:11.891Z,9.75
2022-12-20T21:13:39.003Z,12.10
2022-12-20T21:16:07.888Z,10.68
2022-12-20T21:18:34.914Z,9.52
2022-12-20T21:21:12.652Z,8.75
2022-12-20T21:23:43.394Z,11.00
2022-12-20T21:26:10.101Z,12.32
2022-12-20T21:28:36.894Z,10.38
2022-12-20T21:31:06.036Z,10.70
2022-12-20T21:33:33.135Z,8.85
2022-12-20T21:36:07.084Z,10.20
2022-12-20T21:38:34.563Z,10.10
2022-12-20T21:41:07.256Z,11.05
2022-12-20T21:43:34.541Z,11.65
2022-12-20T21:46:01.285Z,12.55
2022-12-20T21:48:29.607Z,11.23
2022-12-20T21:50:59.916Z,12.73
2022-12-20T21:53:26.814Z,10.95
2022-12-20T21:55:57.262Z,12.15
2022-12-20T21:58:29.495Z,12.18
2022-12-20T22:00:57.242Z,14.18
2022-12-20T22:03:25.368Z,16.27
2022-12-20T22:05:54.403Z,13.23
2022-12-20T22:08:22.286Z,13.10
2022-12-20T22:10:49.996Z,15.13
2022-12-20T22:13:16.818Z,13.02
2022-12-20T22:15:43.573Z,13.30
2022-12-20T22:18:10.259Z,14.43
2022-12-20T22:20:37.156Z,14.50
2022-12-20T22:23:04.719Z,12.50
2022-12-20T22:25:31.649Z,13.95
2022-12-20T22:27:58.481Z,16.27
2022-12-20T22:30:25.180Z,12.07
2022-12-20T22:32:51.884Z,14.73
2022-12-20T22:35:22.695Z,14.85
2022-12-20T22:37:50.491Z,11.23
2022-12-20T22:40:17.918Z,13.85
2022-12-20T22:42:45.001Z,13.13
2022-12-20T22:45:11.983Z,12.85
2022-12-20T22:47:40.833Z,12.32
2022-12-20T22:50:08.764Z,14.25
2022-12-20T22:52:35.582Z,13.43
2022-12-20T22:55:03.120Z,12.68
2022-12-20T22:57:29.915Z,13.35
2022-12-20T22:59:58.815Z,14.43
2022-12-20T23:02:26.661Z,13.15
2022-12-20T23:04:53.941Z,14.23
2022-12-20T23:07:21.791Z,12.18
2022-12-20T23:09:48.843Z,17.73
2022-12-20T23:12:34.218Z,11.20
2022-12-20T23:15:19.651Z,15.40
2022-12-20T23:17:46.428Z,12.23
2022-12-20T23:20:31.614Z,12.77
2022-12-20T23:22:58.284Z,12.73
2022-12-20T23:25:25.610Z,12.02
2022-12-20T23:27:52.800Z,12.35
2022-12-20T23:30:22.771Z,13.15
2022-12-20T23:32:49.587Z,16.25
2022-12-20T23:35:18.144Z,13.25
2022-12-20T23:37:48.363Z,15.15
2022-12-20T23:42:43.604Z,10.15
2022-12-20T23:45:10.855Z,13.13
2022-12-20T23:47:37.818Z,14.70
2022-12-20T23:50:05.220Z,13.88
2022-12-20T23:52:31.954Z,12.77
2022-12-20T23:54:58.701Z,12.40
2022-12-20T23:57:25.397Z,13.43
2022-12-20T23:59:52.126Z,9.80
